createdAt,value
2022-10-31T00:01:34.831Z,1.50
2022-10-31T00:04:02.964Z,2.10
2022-10-31T00:06:31.913Z,1.57
2022-10-31T00:09:02.718Z,1.63
2022-10-31T00:11:31.314Z,1.60
2022-10-31T00:14:01.037Z,2.23
2022-10-31T00:16:30.820Z,1.30
2022-10-31T00:19:02.073Z,1.97
2022-10-31T00:21:32.433Z,1.77
2022-10-31T00:24:01.583Z,2.47
2022-10-31T00:26:30.464Z,1.57
2022-10-31T00:28:59.147Z,1.40
2022-10-31T00:31:28.588Z,1.37
2022-10-31T00:33:56.871Z,1.80
2022-10-31T00:36:25.006Z,1.93
2022-10-31T00:38:53.057Z,1.60
2022-10-31T00:41:21.085Z,1.30
2022-10-31T00:43:49.387Z,1.80
2022-10-31T00:46:17.554Z,1.63
2022-10-31T00:48:46.891Z,2.10
2022-10-31T00:51:14.955Z,2.23
2022-10-31T00:53:43.025Z,1.70
2022-10-31T00:56:11.367Z,2.40
2022-10-31T00:58:39.752Z,1.57
2022-10-31T01:01:08.064Z,1.97
2022-10-31T01:03:36.429Z,1.93
2022-10-31T01:06:09.523Z,1.83
2022-10-31T01:08:38.840Z,1.23
2022-10-31T01:11:11.942Z,1.53
2022-10-31T01:13:40.706Z,1.77
2022-10-31T01:16:12.518Z,1.80
2022-10-31T01:18:41.269Z,2.00
2022-10-31T01:21:13.703Z,2.30
2022-10-31T01:23:41.960Z,1.70
2022-10-31T01:26:13.252Z,1.90
2022-10-31T01:28:48.154Z,1.83
2022-10-31T01:31:18.005Z,1.80
2022-10-31T01:33:46.101Z,2.33
2022-10-31T01:36:19.604Z,2.40
2022-10-31T01:38:49.134Z,2.30
2022-10-31T01:41:20.538Z,2.03
2022-10-31T01:43:53.432Z,2.03
2022-10-31T01:46:27.528Z,1.67
2022-10-31T01:48:59.221Z,2.40
2022-10-31T01:51:37.059Z,1.67
2022-10-31T01:54:12.730Z,2.30
2022-10-31T01:56:46.890Z,1.93
2022-10-31T01:59:20.451Z,1.87
2022-10-31T02:01:50.165Z,2.17
2022-10-31T02:04:19.798Z,1.80
2022-10-31T02:06:56.809Z,2.10
2022-10-31T02:09:26.983Z,2.13
2022-10-31T02:11:59.649Z,1.60
2022-10-31T02:14:31.228Z,2.03
2022-10-31T02:16:59.859Z,1.90
2022-10-31T02:19:41.602Z,1.77
2022-10-31T02:22:23.010Z,1.80
2022-10-31T02:25:15.856Z,2.27
2022-10-31T02:28:14.916Z,2.20
2022-10-31T02:31:02.429Z,1.83
2022-10-31T02:33:42.464Z,1.63
2022-10-31T02:36:21.789Z,1.93
2022-10-31T02:39:04.247Z,1.77
2022-10-31T02:41:42.917Z,1.50
2022-10-31T02:44:22.042Z,1.33
2022-10-31T02:46:59.382Z,1.40
2022-10-31T02:49:38.796Z,1.37
2022-10-31T02:52:19.290Z,1.30
2022-10-31T02:54:49.576Z,1.90
2022-10-31T02:57:25.881Z,1.87
2022-10-31T02:59:58.456Z,2.03
2022-10-31T03:03:00.832Z,2.00
2022-10-31T03:05:45.744Z,2.17
2022-10-31T03:08:25.794Z,1.67
2022-10-31T03:10:59.973Z,2.30
2022-10-31T03:13:40.901Z,1.40
2022-10-31T03:16:16.507Z,1.77
2022-10-31T03:18:55.499Z,1.77
2022-10-31T03:21:30.121Z,1.70
2022-10-31T03:24:01.174Z,1.87
2022-10-31T03:26:30.675Z,1.47
2022-10-31T03:29:03.826Z,1.50
2022-10-31T03:31:40.936Z,1.90
2022-10-31T03:34:14.676Z,1.30
2022-10-31T03:36:45.110Z,1.60
2022-10-31T03:39:19.240Z,1.97
2022-10-31T03:41:58.469Z,1.83
2022-10-31T03:44:31.364Z,1.70
2022-10-31T03:46:59.952Z,1.70
2022-10-31T03:49:31.023Z,1.63
2022-10-31T03:52:09.950Z,1.20
2022-10-31T03:54:44.000Z,1.70
2022-10-31T03:57:23.968Z,1.50
2022-10-31T03:59:58.756Z,1.40
2022-10-31T04:02:33.328Z,1.20
2022-10-31T04:05:04.318Z,1.40
2022-10-31T04:07:41.779Z,1.20
2022-10-31T04:10:15.238Z,1.70
2022-10-31T04:12:46.377Z,1.53
2022-10-31T04:15:15.476Z,1.70
2022-10-31T04:17:47.361Z,1.33
2022-10-31T04:20:20.114Z,1.50
2022-10-31T04:22:48.182Z,1.67
2022-10-31T04:25:16.315Z,1.10
2022-10-31T04:27:44.292Z,1.80
2022-10-31T04:30:13.312Z,1.80
2022-10-31T04:32:41.295Z,1.70
2022-10-31T04:35:09.830Z,1.23
2022-10-31T04:37:39.199Z,1.40
2022-10-31T04:40:08.561Z,1.40
2022-10-31T04:42:36.583Z,1.33
2022-10-31T04:45:05.377Z,1.60
2022-10-31T04:47:34.274Z,1.87
2022-10-31T04:50:02.800Z,1.47
2022-10-31T04:52:31.195Z,1.60
2022-10-31T04:55:00.529Z,1.70
2022-10-31T04:57:28.517Z,1.37
2022-10-31T04:59:56.515Z,1.40
2022-10-31T05:02:24.683Z,1.30
2022-10-31T05:04:52.768Z,1.53
2022-10-31T05:07:20.908Z,1.23
2022-10-31T05:09:48.922Z,1.70
2022-10-31T05:12:18.258Z,0.90
2022-10-31T05:14:48.545Z,1.40
2022-10-31T05:17:16.860Z,1.30
2022-10-31T05:19:44.850Z,1.13
2022-10-31T05:22:12.880Z,1.60
2022-10-31T05:24:40.973Z,1.60
2022-10-31T05:27:08.974Z,1.10
2022-10-31T05:29:38.396Z,1.53
2022-10-31T05:32:06.487Z,1.17
2022-10-31T05:34:34.535Z,1.77
2022-10-31T05:37:02.518Z,1.47
2022-10-31T05:39:30.529Z,1.37
2022-10-31T05:41:58.644Z,1.37
2022-10-31T05:44:26.902Z,1.30
2022-10-31T05:46:56.274Z,0.90
2022-10-31T05:49:24.888Z,1.23
2022-10-31T05:51:52.988Z,1.87
2022-10-31T05:54:20.986Z,1.33
2022-10-31T05:56:48.990Z,1.30
2022-10-31T05:59:16.962Z,1.57
2022-10-31T06:01:45.082Z,1.03
2022-10-31T06:04:14.608Z,1.33
2022-10-31T06:06:42.705Z,1.60
2022-10-31T06:09:10.757Z,1.53
2022-10-31T06:11:38.834Z,1.47
2022-10-31T06:14:07.538Z,1.20
2022-10-31T06:16:35.729Z,1.70
2022-10-31T06:19:03.936Z,1.33
2022-10-31T06:21:33.325Z,1.57
2022-10-31T06:24:01.360Z,1.40
2022-10-31T06:26:29.368Z,1.30
2022-10-31T06:29:02.943Z,1.40
2022-10-31T06:31:32.426Z,1.40
2022-10-31T06:34:00.519Z,1.03
2022-10-31T06:36:28.769Z,1.30
2022-10-31T06:38:58.126Z,1.00
2022-10-31T06:41:26.159Z,1.20
2022-10-31T06:43:54.190Z,1.50
2022-10-31T06:46:22.196Z,1.50
2022-10-31T06:48:50.236Z,1.63
2022-10-31T06:51:18.248Z,1.03
2022-10-31T06:53:46.377Z,1.33
2022-10-31T06:56:15.892Z,1.20
2022-10-31T06:58:44.136Z,1.57
2022-10-31T07:01:12.377Z,0.97
2022-10-31T07:03:40.568Z,1.43
2022-10-31T07:06:08.705Z,1.50
2022-10-31T07:08:36.743Z,1.20
2022-10-31T07:11:04.960Z,1.23
2022-10-31T07:13:34.334Z,1.67
2022-10-31T07:16:07.662Z,1.80
2022-10-31T07:18:36.414Z,1.57
2022-10-31T07:21:05.131Z,1.57
2022-10-31T07:23:34.174Z,1.20
2022-10-31T07:26:02.322Z,1.67
2022-10-31T07:28:30.437Z,1.40
2022-10-31T07:31:00.241Z,1.50
2022-10-31T07:33:28.351Z,1.60
2022-10-31T07:35:56.523Z,1.73
2022-10-31T07:38:24.541Z,1.30
2022-10-31T07:40:54.292Z,1.30
2022-10-31T07:43:22.490Z,1.70
2022-10-31T07:45:54.442Z,1.60
2022-10-31T07:48:24.329Z,1.50
2022-10-31T07:50:52.307Z,1.57
2022-10-31T07:53:20.366Z,1.90
2022-10-31T07:55:48.434Z,1.60
2022-10-31T07:58:18.420Z,2.20
2022-10-31T08:00:49.345Z,1.60
2022-10-31T08:03:19.845Z,1.50
2022-10-31T08:05:49.315Z,1.20
2022-10-31T08:08:17.683Z,1.53
2022-10-31T08:10:45.811Z,1.53
2022-10-31T08:13:15.740Z,2.30
2022-10-31T08:15:44.079Z,1.53
2022-10-31T08:18:15.520Z,1.90
2022-10-31T08:20:45.088Z,1.80
2022-10-31T08:23:15.490Z,1.70
2022-10-31T08:25:43.852Z,1.77
2022-10-31T08:28:13.641Z,1.90
2022-10-31T08:30:43.281Z,1.70
2022-10-31T08:33:14.484Z,1.83
2022-10-31T08:35:42.907Z,1.73
2022-10-31T08:38:12.617Z,2.03
2022-10-31T08:40:42.668Z,2.20
2022-10-31T08:43:15.283Z,1.63
2022-10-31T08:45:44.698Z,1.53
2022-10-31T08:48:15.532Z,1.70
2022-10-31T08:50:45.546Z,1.90
2022-10-31T08:53:16.421Z,1.70
2022-10-31T08:55:48.020Z,1.80
2022-10-31T08:58:18.702Z,1.50
2022-10-31T09:00:48.681Z,2.07
2022-10-31T09:03:19.765Z,1.73
2022-10-31T09:05:48.127Z,2.27
2022-10-31T09:08:17.283Z,1.97
2022-10-31T09:10:47.899Z,2.10
2022-10-31T09:13:18.694Z,2.10
2022-10-31T09:15:49.455Z,1.57
2022-10-31T09:18:20.233Z,1.70
2022-10-31T09:20:50.436Z,2.20
2022-10-31T09:23:20.811Z,1.73
2022-10-31T09:25:53.011Z,1.67
2022-10-31T09:28:25.553Z,1.60
2022-10-31T09:30:55.485Z,1.90
2022-10-31T09:33:23.826Z,1.97
2022-10-31T09:35:52.203Z,1.60
2022-10-31T09:38:24.355Z,1.73
2022-10-31T09:41:04.847Z,1.90
2022-10-31T09:43:43.552Z,2.67
2022-10-31T09:46:20.309Z,1.97
2022-10-31T09:49:24.853Z,2.10
2022-10-31T09:52:02.949Z,1.97
2022-10-31T09:54:41.216Z,2.13
2022-10-31T09:57:16.817Z,2.00
2022-10-31T09:59:47.460Z,2.03
2022-10-31T10:02:26.286Z,1.67
2022-10-31T10:04:59.956Z,1.73
2022-10-31T10:07:50.196Z,1.70
2022-10-31T10:10:28.192Z,1.63
2022-10-31T10:13:24.052Z,1.70
2022-10-31T10:16:15.213Z,1.60
2022-10-31T10:19:04.654Z,1.63
2022-10-31T10:21:46.916Z,1.60
2022-10-31T10:24:33.124Z,1.83
2022-10-31T10:27:20.657Z,1.87
2022-10-31T10:30:07.395Z,1.90
2022-10-31T10:32:50.847Z,2.63
2022-10-31T10:35:28.306Z,2.00
2022-10-31T10:38:04.245Z,2.07
2022-10-31T10:40:32.610Z,1.50
2022-10-31T10:43:22.050Z,2.23
2022-10-31T10:46:32.600Z,1.90
2022-10-31T10:49:11.987Z,2.00
2022-10-31T10:51:58.305Z,2.17
2022-10-31T10:54:57.433Z,2.00
2022-10-31T10:57:41.438Z,2.03
2022-10-31T11:00:22.855Z,2.20
2022-10-31T11:02:53.222Z,1.90
2022-10-31T11:05:35.049Z,1.90
2022-10-31T11:08:03.189Z,1.90
2022-10-31T11:10:31.567Z,2.07
2022-10-31T11:13:19.576Z,2.27
2022-10-31T11:15:58.027Z,2.50
2022-10-31T11:18:31.319Z,2.10
2022-10-31T11:21:01.820Z,2.53
2022-10-31T11:23:31.903Z,1.93
2022-10-31T11:26:03.153Z,2.17
2022-10-31T11:28:35.732Z,2.20
2022-10-31T11:31:10.879Z,1.87
2022-10-31T11:33:48.226Z,2.17
2022-10-31T11:36:24.074Z,2.03
2022-10-31T11:38:53.780Z,2.10
2022-10-31T11:41:29.874Z,2.20
2022-10-31T11:44:02.607Z,1.83
2022-10-31T11:46:37.639Z,1.90
2022-10-31T11:49:17.422Z,2.17
2022-10-31T11:51:51.024Z,2.87
2022-10-31T11:54:26.852Z,2.03
2022-10-31T11:56:55.122Z,2.03
2022-10-31T11:59:30.002Z,2.40
2022-10-31T12:02:02.030Z,2.33
2022-10-31T12:04:46.551Z,1.70
2022-10-31T12:07:14.825Z,2.30
2022-10-31T12:09:43.552Z,1.50
2022-10-31T12:12:44.418Z,1.80
2022-10-31T12:15:32.661Z,1.90
2022-10-31T12:18:24.547Z,2.77
2022-10-31T12:21:14.358Z,2.23
2022-10-31T12:24:04.139Z,1.80
2022-10-31T12:26:48.796Z,2.23
2022-10-31T12:29:44.332Z,1.77
2022-10-31T12:32:31.734Z,2.20
2022-10-31T12:35:22.406Z,1.60
2022-10-31T12:38:27.557Z,1.60
2022-10-31T12:41:18.028Z,1.93
2022-10-31T12:43:57.712Z,1.90
2022-10-31T12:46:59.466Z,1.97
2022-10-31T12:49:50.532Z,2.33
2022-10-31T12:52:37.324Z,1.50
2022-10-31T12:55:40.089Z,1.80
2022-10-31T12:58:19.552Z,2.20
2022-10-31T13:00:52.497Z,1.80
2022-10-31T13:03:31.489Z,1.47
2022-10-31T13:06:06.968Z,1.90
2022-10-31T13:08:43.147Z,1.97
2022-10-31T13:11:19.520Z,1.87
2022-10-31T13:14:02.038Z,1.70
2022-10-31T13:16:37.068Z,1.63
2022-10-31T13:19:14.982Z,1.60
2022-10-31T13:21:59.214Z,1.80
2022-10-31T13:24:37.431Z,2.10
2022-10-31T13:27:20.950Z,1.50
2022-10-31T13:30:03.885Z,1.77
2022-10-31T13:32:44.700Z,1.87
2022-10-31T13:35:26.544Z,1.70
2022-10-31T13:38:10.300Z,1.40
2022-10-31T13:40:50.721Z,1.80
2022-10-31T13:43:33.402Z,1.80
2022-10-31T13:46:01.371Z,1.38
2022-10-31T13:48:42.077Z,2.10
2022-10-31T13:51:12.943Z,2.00
2022-10-31T13:53:46.653Z,2.05
2022-10-31T13:56:24.139Z,2.00
2022-10-31T13:59:20.780Z,1.87
2022-10-31T14:01:57.269Z,1.80
2022-10-31T14:04:29.459Z,1.70
2022-10-31T14:07:08.357Z,1.70
2022-10-31T14:09:40.609Z,2.13
2022-10-31T14:12:14.201Z,1.77
2022-10-31T14:14:49.891Z,1.73
2022-10-31T14:17:27.739Z,2.13
2022-10-31T14:20:25.859Z,2.00
2022-10-31T14:22:54.328Z,2.10
2022-10-31T14:25:33.235Z,1.97
2022-10-31T14:28:04.571Z,2.30
2022-10-31T14:30:34.408Z,2.33
2022-10-31T14:33:18.664Z,2.43
2022-10-31T14:36:00.985Z,2.00
2022-10-31T14:38:46.480Z,2.10
2022-10-31T14:41:47.294Z,2.00
2022-10-31T14:44:50.120Z,1.70
2022-10-31T14:47:36.707Z,2.17
2022-10-31T14:50:43.292Z,1.43
2022-10-31T14:53:21.803Z,2.37
2022-10-31T14:55:54.187Z,2.17
2022-10-31T14:58:32.601Z,2.07
2022-10-31T15:01:01.274Z,1.93
2022-10-31T15:03:44.448Z,2.30
2022-10-31T15:06:22.688Z,2.23
2022-10-31T15:08:53.692Z,2.17
2022-10-31T15:11:25.557Z,1.87
2022-10-31T15:13:56.008Z,2.57
2022-10-31T15:16:29.451Z,2.17
2022-10-31T15:19:02.461Z,1.60
2022-10-31T15:21:31.356Z,2.23
2022-10-31T15:24:04.636Z,1.70
2022-10-31T15:26:41.453Z,1.40
2022-10-31T15:29:17.199Z,1.77
2022-10-31T15:31:52.965Z,2.57
2022-10-31T15:34:31.355Z,1.93
2022-10-31T15:36:59.413Z,1.70
2022-10-31T15:39:27.828Z,2.00
2022-10-31T15:41:59.004Z,2.13
2022-10-31T15:44:30.732Z,2.00
2022-10-31T15:47:02.473Z,1.77
2022-10-31T15:49:39.614Z,2.00
2022-10-31T15:52:16.372Z,1.93
2022-10-31T15:54:52.020Z,1.70
2022-10-31T15:57:22.350Z,2.43
2022-10-31T15:59:51.852Z,3.57
2022-10-31T16:02:24.453Z,3.40
2022-10-31T16:04:58.466Z,2.93
2022-10-31T16:07:27.559Z,3.00
2022-10-31T16:09:58.525Z,3.63
2022-10-31T16:12:32.526Z,3.40
2022-10-31T16:15:00.604Z,3.60
2022-10-31T16:17:30.073Z,3.70
2022-10-31T16:20:03.644Z,4.43
2022-10-31T16:22:34.738Z,3.13
2022-10-31T16:25:12.098Z,3.60
2022-10-31T16:27:41.980Z,3.47
2022-10-31T16:30:44.025Z,4.47
2022-10-31T16:33:29.958Z,6.47
2022-10-31T16:36:15.880Z,4.90
2022-10-31T16:38:49.897Z,4.60
2022-10-31T16:41:17.940Z,4.10
2022-10-31T16:43:51.466Z,4.97
2022-10-31T16:46:25.003Z,3.90
2022-10-31T16:48:53.533Z,3.00
2022-10-31T16:51:23.070Z,3.63
2022-10-31T16:53:54.430Z,3.77
2022-10-31T16:56:30.207Z,3.73
2022-10-31T16:58:58.726Z,2.90
2022-10-31T17:01:27.139Z,3.10
2022-10-31T17:03:55.334Z,2.87
2022-10-31T17:06:28.500Z,2.70
2022-10-31T17:08:56.566Z,1.90
2022-10-31T17:11:27.736Z,1.73
2022-10-31T17:13:57.374Z,2.07
2022-10-31T17:16:25.658Z,1.63
2022-10-31T17:18:53.972Z,1.33
2022-10-31T17:21:27.960Z,1.37
2022-10-31T17:23:56.212Z,1.60
2022-10-31T17:26:24.326Z,1.63
2022-10-31T17:28:52.427Z,1.50
2022-10-31T17:31:24.537Z,1.90
2022-10-31T17:34:00.100Z,1.87
2022-10-31T17:36:31.910Z,1.07
2022-10-31T17:39:00.431Z,1.37
2022-10-31T17:41:28.658Z,1.87
2022-10-31T17:43:57.390Z,2.13
2022-10-31T17:46:25.758Z,2.23
2022-10-31T17:48:53.977Z,1.60
2022-10-31T17:51:22.168Z,2.07
2022-10-31T17:53:51.555Z,3.33
2022-10-31T17:56:19.643Z,2.03
2022-10-31T17:58:47.710Z,2.07
2022-10-31T18:01:18.185Z,2.13
2022-10-31T18:03:46.763Z,1.80
2022-10-31T18:06:16.798Z,1.70
2022-10-31T18:08:45.937Z,1.97
2022-10-31T18:11:20.806Z,2.17
2022-10-31T18:13:49.273Z,1.70
2022-10-31T18:16:19.163Z,1.53
2022-10-31T18:18:52.727Z,1.90
2022-10-31T18:21:21.387Z,2.10
2022-10-31T18:23:49.557Z,1.60
2022-10-31T18:26:19.088Z,1.40
2022-10-31T18:28:47.094Z,1.27
2022-10-31T18:31:15.326Z,1.93
2022-10-31T18:33:43.409Z,2.50
2022-10-31T18:36:12.820Z,4.13
2022-10-31T18:38:42.754Z,3.83
2022-10-31T18:41:10.862Z,5.10
2022-10-31T18:43:40.441Z,4.70
2022-10-31T18:46:12.071Z,4.53
2022-10-31T18:48:43.107Z,4.20
2022-10-31T18:51:14.714Z,3.33
2022-10-31T18:53:44.886Z,2.70
2022-10-31T18:56:17.785Z,2.53
2022-10-31T18:58:47.240Z,3.00
2022-10-31T19:01:17.495Z,2.33
2022-10-31T19:03:46.081Z,1.53
2022-10-31T19:06:14.091Z,1.70
2022-10-31T19:08:42.102Z,2.07
2022-10-31T19:11:13.847Z,2.17
2022-10-31T19:13:43.612Z,2.63
2022-10-31T19:16:15.842Z,2.37
2022-10-31T19:18:45.696Z,2.70
2022-10-31T19:21:16.639Z,2.10
2022-10-31T19:23:46.136Z,1.97
2022-10-31T19:26:15.216Z,1.70
2022-10-31T19:28:43.645Z,1.60
2022-10-31T19:31:13.181Z,2.23
2022-10-31T19:33:43.536Z,1.83
2022-10-31T19:36:15.400Z,1.90
2022-10-31T19:38:45.906Z,3.77
2022-10-31T19:41:17.124Z,5.40
2022-10-31T19:43:45.413Z,4.30
2022-10-31T19:46:22.845Z,2.60
2022-10-31T19:49:02.106Z,1.77
2022-10-31T19:51:30.204Z,1.67
2022-10-31T19:53:58.256Z,2.00
2022-10-31T19:56:27.267Z,2.13
2022-10-31T19:58:55.265Z,2.23
2022-10-31T20:01:25.386Z,2.23
2022-10-31T20:03:53.479Z,2.57
2022-10-31T20:06:24.566Z,2.60
2022-10-31T20:08:53.415Z,3.27
2022-10-31T20:11:21.511Z,3.00
2022-10-31T20:13:49.662Z,3.27
2022-10-31T20:16:18.971Z,2.30
2022-10-31T20:18:48.461Z,2.23
2022-10-31T20:21:20.479Z,2.30
2022-10-31T20:23:48.769Z,2.73
2022-10-31T20:26:20.181Z,2.23
2022-10-31T20:28:49.109Z,2.23
2022-10-31T20:31:20.804Z,2.67
2022-10-31T20:33:51.028Z,2.30
2022-10-31T20:36:20.964Z,2.43
2022-10-31T20:38:49.132Z,1.83
2022-10-31T20:41:18.550Z,2.80
2022-10-31T20:43:47.174Z,2.33
2022-10-31T20:46:18.459Z,2.13
2022-10-31T20:48:47.556Z,3.00
2022-10-31T20:51:21.396Z,2.80
2022-10-31T20:53:49.835Z,3.10
2022-10-31T20:56:20.101Z,2.50
2022-10-31T20:58:49.476Z,1.90
2022-10-31T21:01:21.415Z,2.67
2022-10-31T21:03:51.144Z,3.13
2022-10-31T21:06:26.419Z,3.33
2022-10-31T21:08:54.955Z,3.00
2022-10-31T21:11:26.537Z,3.33
2022-10-31T21:13:54.941Z,4.07
2022-10-31T21:16:25.503Z,5.87
2022-10-31T21:18:54.694Z,4.10
2022-10-31T21:21:30.678Z,4.53
2022-10-31T21:24:03.745Z,4.60
2022-10-31T21:26:43.074Z,6.20
2022-10-31T21:29:13.388Z,6.70
2022-10-31T21:31:42.796Z,4.73
2022-10-31T21:34:11.928Z,6.03
2022-10-31T21:36:41.641Z,6.83
2022-10-31T21:39:11.729Z,7.40
2022-10-31T21:41:39.860Z,6.50
2022-10-31T21:44:07.916Z,6.47
2022-10-31T21:46:38.484Z,7.90
2022-10-31T21:49:06.913Z,6.67
2022-10-31T21:51:37.076Z,6.77
2022-10-31T21:54:24.509Z,8.47
2022-10-31T21:56:52.664Z,9.37
2022-10-31T21:59:21.054Z,6.87
2022-10-31T22:01:49.437Z,4.90
2022-10-31T22:04:18.088Z,7.07
2022-10-31T22:06:46.506Z,6.40
2022-10-31T22:09:18.804Z,5.70
2022-10-31T22:11:47.577Z,4.50
2022-10-31T22:14:16.476Z,3.67
2022-10-31T22:16:44.994Z,4.57
2022-10-31T22:19:15.083Z,4.57
2022-10-31T22:21:47.245Z,4.07
2022-10-31T22:24:18.318Z,3.47
2022-10-31T22:26:46.768Z,3.87
2022-10-31T22:29:18.405Z,3.30
2022-10-31T22:31:51.899Z,3.73
2022-10-31T22:34:23.292Z,2.50
2022-10-31T22:36:51.383Z,2.83
2022-10-31T22:39:21.367Z,2.63
2022-10-31T22:41:49.523Z,2.77
2022-10-31T22:44:17.567Z,3.70
2022-10-31T22:46:45.618Z,2.97
2022-10-31T22:49:16.483Z,3.03
2022-10-31T22:51:45.577Z,3.10
2022-10-31T22:54:16.441Z,3.27
2022-10-31T22:56:46.814Z,3.20
2022-10-31T22:59:17.271Z,3.57
2022-10-31T23:01:46.251Z,3.00
2022-10-31T23:04:15.808Z,3.53
2022-10-31T23:06:44.550Z,3.87
2022-10-31T23:09:16.546Z,2.90
2022-10-31T23:11:46.449Z,2.10
2022-10-31T23:14:20.910Z,2.90
2022-10-31T23:16:51.888Z,2.10
2022-10-31T23:19:22.998Z,3.20
2022-10-31T23:21:57.319Z,2.87
2022-10-31T23:24:29.637Z,2.77
2022-10-31T23:27:08.431Z,2.63
2022-10-31T23:29:44.268Z,3.40
2022-10-31T23:32:17.832Z,2.17
2022-10-31T23:34:47.353Z,2.27
2022-10-31T23:37:17.207Z,2.27
2022-10-31T23:39:45.767Z,2.67
2022-10-31T23:42:16.490Z,2.37
2022-10-31T23:44:44.669Z,2.93
2022-10-31T23:47:14.081Z,2.77
2022-10-31T23:49:42.123Z,3.07
2022-10-31T23:52:10.677Z,2.60
2022-10-31T23:54:39.417Z,2.13
2022-10-31T23:57:08.197Z,2.27
2022-10-31T23:59:37.736Z,3.20
